createdAt,value
2019-03-09T00:04:22.222Z,10.35
2019-03-09T00:07:11.023Z,10.01
2019-03-09T00:09:59.844Z,10.24
2019-03-09T00:12:48.641Z,10.21
2019-03-09T00:15:37.465Z,10.01
2019-03-09T00:18:07.199Z,10.19
2019-03-09T00:20:36.663Z,10.22
2019-03-09T00:23:44.503Z,10.10
2019-03-09T00:26:52.351Z,9.27
2019-03-09T00:30:00.295Z,10.30
2019-03-09T00:32:49.245Z,10.34
2019-03-09T00:35:38.047Z,10.33
2019-03-09T00:38:27.111Z,10.35
2019-03-09T00:41:15.579Z,10.57
2019-03-09T00:44:04.644Z,10.55
2019-03-09T00:46:34.099Z,10.66
2019-03-09T00:49:22.916Z,10.76
2019-03-09T00:52:11.715Z,10.76
2019-03-09T00:54:53.551Z,10.83
2019-03-09T00:57:42.642Z,10.52
2019-03-09T01:00:31.441Z,10.80
2019-03-09T01:03:20.516Z,10.37
2019-03-09T01:06:09.326Z,10.69
2019-03-09T01:08:58.133Z,9.94
2019-03-09T01:11:47.001Z,10.80
2019-03-09T01:14:16.488Z,10.82
2019-03-09T01:17:05.306Z,10.78
2019-03-09T01:19:54.119Z,10.26
2019-03-09T01:22:42.986Z,10.33
2019-03-09T01:25:31.805Z,10.72
2019-03-09T01:28:20.595Z,10.70
2019-03-09T01:31:09.415Z,10.67
2019-03-09T01:33:58.208Z,10.59
2019-03-09T01:36:47.025Z,10.79
2019-03-09T01:39:35.827Z,10.73
2019-03-09T01:42:24.640Z,10.70
2019-03-09T01:44:54.095Z,10.77
2019-03-09T01:47:42.912Z,10.86
2019-03-09T01:50:31.708Z,10.42
2019-03-09T01:53:20.511Z,9.22
2019-03-09T01:56:09.308Z,10.69
2019-03-09T01:58:58.114Z,9.17
2019-03-09T02:01:27.581Z,10.71
2019-03-09T02:04:16.415Z,10.82
2019-03-09T02:07:05.273Z,10.86
2019-03-09T02:09:34.820Z,10.63
2019-03-09T02:12:23.613Z,10.82
2019-03-09T02:15:14.935Z,10.67
2019-03-09T02:18:03.798Z,10.87
2019-03-09T02:20:52.685Z,10.66
2019-03-09T02:23:41.487Z,10.58
2019-03-09T02:26:30.306Z,10.75
2019-03-09T02:29:19.102Z,10.82
2019-03-09T02:32:07.917Z,10.84
2019-03-09T02:34:56.711Z,10.68
2019-03-09T02:37:45.536Z,10.66
2019-03-09T02:40:34.335Z,10.71
2019-03-09T02:43:23.223Z,10.55
2019-03-09T02:46:12.069Z,10.63
2019-03-09T02:49:00.917Z,10.66
2019-03-09T02:51:49.744Z,10.76
2019-03-09T02:54:38.634Z,10.49
2019-03-09T02:57:19.992Z,10.53
2019-03-09T03:03:25.501Z,10.59
2019-03-09T03:06:14.308Z,9.76
2019-03-09T03:12:02.341Z,10.37
2019-03-09T03:14:51.123Z,9.74
2019-03-09T03:17:39.949Z,10.46
2019-03-09T03:20:28.736Z,10.38
2019-03-09T03:23:17.561Z,10.27
2019-03-09T03:26:06.344Z,9.56
2019-03-09T03:28:55.164Z,10.44
2019-03-09T03:31:43.977Z,10.03
2019-03-09T03:34:32.764Z,10.27
2019-03-09T03:37:14.783Z,10.13
2019-03-09T03:40:05.241Z,10.23
2019-03-09T03:42:54.032Z,10.31
2019-03-09T03:45:43.156Z,10.19
2019-03-09T03:48:31.956Z,10.12
2019-03-09T03:51:20.757Z,9.96
2019-03-09T03:54:09.550Z,10.12
2019-03-09T03:56:51.657Z,9.70
2019-03-09T03:59:40.445Z,10.11
2019-03-09T04:02:29.246Z,9.92
2019-03-09T04:05:18.048Z,10.15
2019-03-09T04:08:07.127Z,10.07
2019-03-09T04:10:55.996Z,10.25
2019-03-09T04:13:44.809Z,10.10
2019-03-09T04:16:33.947Z,8.79
2019-03-09T04:19:22.771Z,10.36
2019-03-09T04:22:11.581Z,8.75
2019-03-09T04:25:19.438Z,10.34
2019-03-09T04:28:08.421Z,10.42
2019-03-09T04:34:05.108Z,9.50
2019-03-09T04:36:46.404Z,8.66
2019-03-09T04:39:35.223Z,10.34
2019-03-09T04:42:24.031Z,10.27
2019-03-09T04:45:13.484Z,9.46
2019-03-09T04:48:02.286Z,10.42
2019-03-09T04:50:51.110Z,10.45
2019-03-09T04:53:39.895Z,10.37
2019-03-09T04:56:21.901Z,8.92
2019-03-09T04:59:10.696Z,10.51
2019-03-09T05:01:59.514Z,10.60
2019-03-09T05:04:48.394Z,10.71
2019-03-09T05:11:12.049Z,10.70
2019-03-09T05:14:00.867Z,10.77
2019-03-09T05:16:49.657Z,10.72
2019-03-09T05:19:38.477Z,10.78
2019-03-09T05:22:27.269Z,10.82
2019-03-09T05:25:16.078Z,9.32
2019-03-09T05:28:04.966Z,10.85
2019-03-09T05:30:53.757Z,10.98
2019-03-09T05:33:42.577Z,10.97
2019-03-09T05:36:31.393Z,10.96
2019-03-09T05:39:20.208Z,11.05
2019-03-09T05:42:08.997Z,10.97
2019-03-09T05:44:57.816Z,11.09
2019-03-09T05:47:46.603Z,11.08
2019-03-09T05:50:35.422Z,10.44
2019-03-09T05:53:24.208Z,10.66
2019-03-09T05:56:13.020Z,10.96
2019-03-09T05:58:54.685Z,11.13
2019-03-09T06:01:43.500Z,9.83
2019-03-09T06:04:32.308Z,11.10
2019-03-09T06:07:21.116Z,11.06
2019-03-09T06:10:09.905Z,10.95
2019-03-09T06:12:58.794Z,11.24
2019-03-09T06:15:47.583Z,9.77
2019-03-09T06:18:36.465Z,10.30
2019-03-09T06:21:25.264Z,10.00
2019-03-09T06:24:14.081Z,11.05
2019-03-09T06:27:02.870Z,11.06
2019-03-09T06:29:51.686Z,11.09
2019-03-09T06:33:01.381Z,11.22
2019-03-09T06:36:11.127Z,11.20
2019-03-09T06:39:20.835Z,11.29
2019-03-09T06:42:48.336Z,11.11
2019-03-09T06:45:37.162Z,11.37
2019-03-09T06:48:25.962Z,11.57
2019-03-09T06:51:14.780Z,11.29
2019-03-09T06:54:03.570Z,11.49
2019-03-09T06:56:52.385Z,11.64
2019-03-09T06:59:33.906Z,11.43
2019-03-09T07:02:22.717Z,11.84
2019-03-09T07:05:11.547Z,11.62
2019-03-09T07:08:00.337Z,11.19
2019-03-09T07:10:49.158Z,12.19
2019-03-09T07:13:37.945Z,11.98
2019-03-09T07:16:26.759Z,12.22
2019-03-09T07:19:15.561Z,11.98
2019-03-09T07:22:04.633Z,12.26
2019-03-09T07:24:53.445Z,12.39
2019-03-09T07:27:42.245Z,12.60
2019-03-09T07:30:31.122Z,12.48
2019-03-09T07:33:19.937Z,11.11
2019-03-09T07:36:08.747Z,12.71
2019-03-09T07:38:57.546Z,12.78
2019-03-09T07:41:46.361Z,12.96
2019-03-09T07:44:35.162Z,13.47
2019-03-09T07:47:23.977Z,13.28
2019-03-09T07:50:33.702Z,13.50
2019-03-09T07:53:22.497Z,13.16
2019-03-09T07:56:11.295Z,12.15
2019-03-09T07:58:52.749Z,13.43
2019-03-09T08:01:41.541Z,12.85
2019-03-09T08:04:30.366Z,13.32
2019-03-09T08:07:19.156Z,13.20
2019-03-09T08:10:28.881Z,13.65
2019-03-09T08:13:17.696Z,12.61
2019-03-09T08:16:06.497Z,13.66
2019-03-09T08:18:55.311Z,13.53
2019-03-09T08:21:44.104Z,13.86
2019-03-09T08:24:32.921Z,14.12
2019-03-09T08:27:21.737Z,12.55
2019-03-09T08:30:31.457Z,13.78
2019-03-09T08:33:20.305Z,13.70
2019-03-09T08:36:09.138Z,13.28
2019-03-09T08:38:50.857Z,13.44
2019-03-09T08:41:39.624Z,13.40
2019-03-09T08:44:28.451Z,13.38
2019-03-09T08:47:17.236Z,13.31
2019-03-09T08:50:25.381Z,13.34
2019-03-09T08:53:14.195Z,13.33
2019-03-09T08:56:03.005Z,13.43
2019-03-09T08:58:44.211Z,13.37
2019-03-09T09:01:33.043Z,13.53
2019-03-09T09:04:21.835Z,13.53
2019-03-09T09:07:10.648Z,13.59
2019-03-09T09:09:59.444Z,13.84
2019-03-09T09:12:48.261Z,13.52
2019-03-09T09:15:37.062Z,13.23
2019-03-09T09:18:25.882Z,13.71
2019-03-09T09:21:14.678Z,13.55
2019-03-09T09:24:03.492Z,13.86
2019-03-09T09:26:52.303Z,13.94
2019-03-09T09:29:41.452Z,13.82
2019-03-09T09:32:30.273Z,13.56
2019-03-09T09:38:47.544Z,13.96
2019-03-09T09:41:28.860Z,13.85
2019-03-09T09:44:17.747Z,13.24
2019-03-09T09:47:06.537Z,13.75
2019-03-09T09:49:55.360Z,14.16
2019-03-09T09:52:44.263Z,13.34
2019-03-09T09:55:33.122Z,14.38
2019-03-09T09:58:21.920Z,14.32
2019-03-09T10:01:10.731Z,13.98
2019-03-09T10:03:59.532Z,13.90
2019-03-09T10:06:48.351Z,14.44
2019-03-09T10:09:37.167Z,12.95
2019-03-09T10:12:25.971Z,14.55
2019-03-09T10:15:35.745Z,14.34
2019-03-09T10:18:24.595Z,14.23
2019-03-09T10:21:13.424Z,13.75
2019-03-09T10:24:02.233Z,14.52
2019-03-09T10:26:51.035Z,14.08
2019-03-09T10:29:39.853Z,13.80
2019-03-09T10:32:28.739Z,14.11
2019-03-09T10:35:17.660Z,14.11
2019-03-09T10:38:06.455Z,14.49
2019-03-09T10:40:48.267Z,14.59
2019-03-09T10:43:37.067Z,14.90
2019-03-09T10:46:25.891Z,14.87
2019-03-09T10:49:14.697Z,15.23
2019-03-09T10:52:03.510Z,13.47
2019-03-09T10:57:53.270Z,14.76
2019-03-09T11:01:02.979Z,15.06
2019-03-09T11:03:51.800Z,14.71
2019-03-09T11:06:40.604Z,14.66
2019-03-09T11:09:29.427Z,14.95
2019-03-09T11:12:18.224Z,14.71
2019-03-09T11:15:27.947Z,14.44
2019-03-09T11:18:16.743Z,15.00
2019-03-09T11:21:05.646Z,14.91
2019-03-09T11:24:13.539Z,15.57
2019-03-09T11:27:02.357Z,15.41
2019-03-09T11:30:10.252Z,15.13
2019-03-09T11:32:59.084Z,15.36
2019-03-09T11:35:47.894Z,15.43
2019-03-09T11:38:36.711Z,14.03
2019-03-09T11:41:25.504Z,15.76
2019-03-09T11:44:33.350Z,15.67
2019-03-09T11:47:22.153Z,15.55
2019-03-09T11:50:31.877Z,15.46
2019-03-09T11:53:20.671Z,15.47
2019-03-09T11:56:09.617Z,14.21
2019-03-09T11:59:17.489Z,15.77
2019-03-09T12:05:21.285Z,15.33
2019-03-09T12:08:10.083Z,14.85
2019-03-09T12:10:58.915Z,15.20
2019-03-09T12:14:06.835Z,15.32
2019-03-09T12:16:55.637Z,15.04
2019-03-09T12:19:44.458Z,15.08
2019-03-09T12:22:33.271Z,15.29
2019-03-09T12:25:22.076Z,14.14
2019-03-09T12:31:05.175Z,15.43
2019-03-09T12:33:53.992Z,15.55
2019-03-09T12:36:42.884Z,15.56
2019-03-09T12:39:31.688Z,14.53
2019-03-09T12:42:20.516Z,15.44
2019-03-09T12:45:30.272Z,15.69
2019-03-09T12:51:13.054Z,16.52
2019-03-09T12:54:01.884Z,16.92
2019-03-09T12:56:50.688Z,16.98
2019-03-09T12:59:39.513Z,17.75
2019-03-09T13:02:21.037Z,17.65
2019-03-09T13:05:10.004Z,16.67
2019-03-09T13:07:58.849Z,16.95
2019-03-09T13:10:47.647Z,17.46
2019-03-09T13:13:36.473Z,17.84
2019-03-09T13:16:25.270Z,18.52
2019-03-09T13:19:14.092Z,17.85
2019-03-09T13:22:02.888Z,18.35
2019-03-09T13:24:51.717Z,18.12
2019-03-09T13:27:40.545Z,17.80
2019-03-09T13:30:48.366Z,17.85
2019-03-09T13:33:37.177Z,18.53
2019-03-09T13:36:26.005Z,18.71
2019-03-09T13:39:14.817Z,17.56
2019-03-09T13:42:03.635Z,18.76
2019-03-09T13:48:00.196Z,18.00
2019-03-09T13:50:49.006Z,16.56
2019-03-09T13:53:37.834Z,16.49
2019-03-09T13:56:26.656Z,16.04
2019-03-09T13:59:15.456Z,15.98
2019-03-09T14:01:56.779Z,15.39
2019-03-09T14:04:45.582Z,14.08
2019-03-09T14:07:34.399Z,15.22
2019-03-09T14:10:23.212Z,15.39
2019-03-09T14:13:12.023Z,15.02
2019-03-09T14:16:00.827Z,14.79
2019-03-09T14:18:49.684Z,15.03
2019-03-09T14:21:38.521Z,13.61
2019-03-09T14:24:27.337Z,14.71
2019-03-09T14:27:16.391Z,13.90
2019-03-09T14:30:26.134Z,14.46
2019-03-09T14:33:14.933Z,12.98
2019-03-09T14:36:03.761Z,12.90
2019-03-09T14:38:52.559Z,14.23
2019-03-09T14:41:41.374Z,14.57
2019-03-09T14:44:30.184Z,14.33
2019-03-09T14:47:18.997Z,14.32
2019-03-09T14:50:28.726Z,14.41
2019-03-09T14:53:17.522Z,14.74
2019-03-09T14:56:06.346Z,14.52
2019-03-09T14:58:55.147Z,15.19
2019-03-09T15:01:36.690Z,16.28
2019-03-09T15:04:25.520Z,16.84
2019-03-09T15:07:14.314Z,16.19
2019-03-09T15:10:22.234Z,15.42
2019-03-09T15:13:30.055Z,14.05
2019-03-09T15:16:18.879Z,13.45
2019-03-09T15:19:07.691Z,14.61
2019-03-09T15:21:56.513Z,14.48
2019-03-09T15:24:45.316Z,14.43
2019-03-09T15:27:34.453Z,14.21
2019-03-09T15:30:24.656Z,14.09
2019-03-09T15:33:13.472Z,12.54
2019-03-09T15:36:02.278Z,13.18
2019-03-09T15:38:51.110Z,13.56
2019-03-09T15:41:39.903Z,13.75
2019-03-09T15:44:28.726Z,14.26
2019-03-09T15:47:17.523Z,13.98
2019-03-09T15:50:27.251Z,13.59
2019-03-09T15:53:16.105Z,13.34
2019-03-09T15:56:05.044Z,13.53
2019-03-09T15:58:53.954Z,13.32
2019-03-09T16:01:35.695Z,13.17
2019-03-09T16:04:24.492Z,13.02
2019-03-09T16:07:13.301Z,11.93
2019-03-09T16:10:02.105Z,12.79
2019-03-09T16:12:50.991Z,11.85
2019-03-09T16:15:39.798Z,13.01
2019-03-09T16:18:28.610Z,13.16
2019-03-09T16:21:17.408Z,12.98
2019-03-09T16:24:25.627Z,11.79
2019-03-09T16:27:14.425Z,12.89
2019-03-09T16:30:03.313Z,12.80
2019-03-09T16:32:52.198Z,12.99
2019-03-09T16:35:40.993Z,11.53
2019-03-09T16:38:48.833Z,13.08
2019-03-09T16:41:37.625Z,13.23
2019-03-09T16:44:19.057Z,12.60
2019-03-09T16:47:07.846Z,13.28
2019-03-09T16:49:56.664Z,13.48
2019-03-09T16:52:45.467Z,11.79
2019-03-09T16:55:34.283Z,13.20
2019-03-09T16:58:23.074Z,13.15
2019-03-09T17:01:11.893Z,12.85
2019-03-09T17:04:00.694Z,11.33
2019-03-09T17:06:49.511Z,11.19
2019-03-09T17:09:38.304Z,10.50
2019-03-09T17:12:27.168Z,10.63
2019-03-09T17:15:36.826Z,11.12
2019-03-09T17:18:25.652Z,10.78
2019-03-09T17:21:14.447Z,10.94
2019-03-09T17:24:03.594Z,11.03
2019-03-09T17:26:52.386Z,11.16
2019-03-09T17:29:41.200Z,11.24
2019-03-09T17:32:29.995Z,11.12
2019-03-09T17:35:18.829Z,8.91
2019-03-09T17:38:07.606Z,9.52
2019-03-09T17:40:56.425Z,8.89
2019-03-09T17:43:37.760Z,9.03
2019-03-09T17:46:26.576Z,9.33
2019-03-09T17:49:15.380Z,9.54
2019-03-09T17:52:04.188Z,7.94
2019-03-09T18:00:55.268Z,8.22
2019-03-09T18:03:44.060Z,9.74
2019-03-09T18:06:33.172Z,9.80
2019-03-09T18:09:21.971Z,9.85
2019-03-09T18:12:10.785Z,9.93
2019-03-09T18:14:59.599Z,9.88
2019-03-09T18:17:48.423Z,9.17
2019-03-09T18:20:37.211Z,9.85
2019-03-09T18:26:19.909Z,10.06
2019-03-09T18:29:08.722Z,10.20
2019-03-09T18:31:57.513Z,10.32
2019-03-09T18:34:46.328Z,8.61
2019-03-09T18:37:35.117Z,8.62
2019-03-09T18:40:23.936Z,10.23
2019-03-09T18:43:12.752Z,8.90
2019-03-09T18:45:54.280Z,9.93
2019-03-09T18:48:43.094Z,9.99
2019-03-09T18:51:31.912Z,9.92
2019-03-09T18:54:20.713Z,10.10
2019-03-09T18:57:09.539Z,9.02
2019-03-09T18:59:58.331Z,10.32
2019-03-09T19:02:47.218Z,10.40
2019-03-09T19:05:36.022Z,10.42
2019-03-09T19:08:24.834Z,10.13
2019-03-09T19:11:13.635Z,9.75
2019-03-09T19:14:02.449Z,10.10
2019-03-09T19:16:51.336Z,8.97
2019-03-09T19:19:40.209Z,10.19
2019-03-09T19:22:29.034Z,8.87
2019-03-09T19:28:32.939Z,10.25
2019-03-09T19:31:21.740Z,10.46
2019-03-09T19:34:10.555Z,10.07
2019-03-09T19:36:59.731Z,9.80
2019-03-09T19:39:48.625Z,10.22
2019-03-09T19:42:37.466Z,10.33
2019-03-09T19:45:22.242Z,10.31
2019-03-09T19:48:11.061Z,10.15
2019-03-09T19:50:59.852Z,9.76
2019-03-09T19:53:48.668Z,10.45
2019-03-09T19:56:37.474Z,10.66
2019-03-09T19:59:26.300Z,10.01
2019-03-09T20:02:15.088Z,9.99
2019-03-09T20:08:18.625Z,10.30
2019-03-09T20:11:07.445Z,10.45
2019-03-09T20:17:03.995Z,10.22
2019-03-09T20:19:52.792Z,9.60
2019-03-09T20:22:41.607Z,10.25
2019-03-09T20:25:49.479Z,10.26
2019-03-09T20:28:38.274Z,10.21
2019-03-09T20:31:27.095Z,10.05
2019-03-09T20:34:15.924Z,10.04
2019-03-09T20:37:04.742Z,10.45
2019-03-09T20:39:53.633Z,10.35
2019-03-09T20:42:42.492Z,10.43
2019-03-09T20:45:23.971Z,10.47
2019-03-09T20:48:12.771Z,10.47
2019-03-09T20:51:01.597Z,10.53
2019-03-09T20:53:50.404Z,9.66
2019-03-09T20:59:33.446Z,10.15
2019-03-09T21:02:22.264Z,10.11
2019-03-09T21:05:11.134Z,10.26
2019-03-09T21:07:59.966Z,10.33
2019-03-09T21:10:48.751Z,10.11
2019-03-09T21:13:37.567Z,10.15
2019-03-09T21:16:26.376Z,10.18
2019-03-09T21:19:15.257Z,10.11
2019-03-09T21:22:04.057Z,10.37
2019-03-09T21:24:33.535Z,10.12
2019-03-09T21:33:28.314Z,10.37
2019-03-09T21:36:17.120Z,10.55
2019-03-09T21:39:06.213Z,10.66
2019-03-09T21:41:54.989Z,9.53
2019-03-09T21:44:43.807Z,10.88
2019-03-09T21:47:25.401Z,10.77
2019-03-09T21:50:34.301Z,10.19
2019-03-09T21:53:23.050Z,10.69
2019-03-09T21:56:11.866Z,10.61
2019-03-09T21:59:00.658Z,10.37
2019-03-09T22:01:49.473Z,10.45
2019-03-09T22:07:46.039Z,10.36
2019-03-09T22:10:53.857Z,10.35
2019-03-09T22:13:42.679Z,9.95
2019-03-09T22:16:31.740Z,10.02
2019-03-09T22:19:20.574Z,10.12
2019-03-09T22:22:09.364Z,9.83
2019-03-09T22:31:07.101Z,9.91
2019-03-09T22:36:49.909Z,10.13
2019-03-09T22:39:38.760Z,10.15
2019-03-09T22:42:27.598Z,8.45
2019-03-09T22:45:35.699Z,10.20
2019-03-09T22:48:17.273Z,10.12
2019-03-09T22:51:06.092Z,10.22
2019-03-09T22:54:13.911Z,10.15
2019-03-09T22:57:02.732Z,10.10
2019-03-09T22:59:51.533Z,10.01
2019-03-09T23:05:34.772Z,10.23
2019-03-09T23:08:23.632Z,10.33
2019-03-09T23:11:12.451Z,10.51
2019-03-09T23:14:01.301Z,10.55
2019-03-09T23:17:09.103Z,10.23
2019-03-09T23:19:57.939Z,10.47
2019-03-09T23:22:46.717Z,9.34
2019-03-09T23:25:35.512Z,10.49
2019-03-09T23:28:24.328Z,10.46
2019-03-09T23:31:13.134Z,10.51
2019-03-09T23:34:01.945Z,10.74
2019-03-09T23:36:50.742Z,10.30
2019-03-09T23:39:39.628Z,10.52
2019-03-09T23:42:28.445Z,10.61
2019-03-09T23:45:38.160Z,10.58
2019-03-09T23:48:26.959Z,10.45
2019-03-09T23:51:15.781Z,11.06
2019-03-09T23:54:04.584Z,9.40
2019-03-09T23:56:53.404Z,11.00
2019-03-09T23:59:42.272Z,11.02
